sensor_id;sensor_type;location;lat;lon;timestamp;temperature;humidity
20233;DHT22;37438;55.674;13.074;2023-01-23T00:02:39;1.30;99.90
20233;DHT22;37438;55.674;13.074;2023-01-23T00:05:43;1.30;99.90
20233;DHT22;37438;55.674;13.074;2023-01-23T00:08:48;1.30;99.90
20233;DHT22;37438;55.674;13.074;2023-01-23T00:11:52;1.30;99.90
20233;DHT22;37438;55.674;13.074;2023-01-23T00:14:56;1.30;99.90
20233;DHT22;37438;55.674;13.074;2023-01-23T00:18:00;1.30;99.90
20233;DHT22;37438;55.674;13.074;2023-01-23T00:21:11;1.30;99.90
20233;DHT22;37438;55.674;13.074;2023-01-23T00:24:15;1.30;99.90
20233;DHT22;37438;55.674;13.074;2023-01-23T00:27:20;1.20;99.90
20233;DHT22;37438;55.674;13.074;2023-01-23T00:30:24;1.30;99.90
20233;DHT22;37438;55.674;13.074;2023-01-23T00:33:30;1.30;99.90
20233;DHT22;37438;55.674;13.074;2023-01-23T00:36:40;1.30;99.90
20233;DHT22;37438;55.674;13.074;2023-01-23T00:39:45;1.20;99.90
20233;DHT22;37438;55.674;13.074;2023-01-23T00:42:49;1.30;99.90
20233;DHT22;37438;55.674;13.074;2023-01-23T00:45:54;1.20;99.90
20233;DHT22;37438;55.674;13.074;2023-01-23T00:48:59;1.30;99.90
20233;DHT22;37438;55.674;13.074;2023-01-23T00:52:04;1.20;99.90
20233;DHT22;37438;55.674;13.074;2023-01-23T00:55:09;1.20;99.90
20233;DHT22;37438;55.674;13.074;2023-01-23T00:58:13;1.20;99.90
20233;DHT22;37438;55.674;13.074;2023-01-23T01:01:18;1.20;99.90
20233;DHT22;37438;55.674;13.074;2023-01-23T01:04:23;1.20;99.90
20233;DHT22;37438;55.674;13.074;2023-01-23T01:07:27;1.20;99.90
20233;DHT22;37438;55.674;13.074;2023-01-23T01:10:32;1.20;99.90
20233;DHT22;37438;55.674;13.074;2023-01-23T01:13:37;1.20;99.90
20233;DHT22;37438;55.674;13.074;2023-01-23T01:16:42;1.30;99.90
20233;DHT22;37438;55.674;13.074;2023-01-23T01:19:48;1.20;99.90
20233;DHT22;37438;55.674;13.074;2023-01-23T01:22:54;1.20;99.90
20233;DHT22;37438;55.674;13.074;2023-01-23T01:25:59;1.20;99.90
20233;DHT22;37438;55.674;13.074;2023-01-23T01:29:04;1.20;99.90
20233;DHT22;37438;55.674;13.074;2023-01-23T01:32:09;1.30;99.90
20233;DHT22;37438;55.674;13.074;2023-01-23T01:35:14;1.20;99.90
20233;DHT22;37438;55.674;13.074;2023-01-23T01:38:18;1.20;99.90
20233;DHT22;37438;55.674;13.074;2023-01-23T01:41:23;1.30;99.90
20233;DHT22;37438;55.674;13.074;2023-01-23T01:44:27;1.30;99.90
20233;DHT22;37438;55.674;13.074;2023-01-23T01:47:32;1.30;99.90
20233;DHT22;37438;55.674;13.074;2023-01-23T01:50:36;1.30;99.90
20233;DHT22;37438;55.674;13.074;2023-01-23T01:53:42;1.30;99.90
20233;DHT22;37438;55.674;13.074;2023-01-23T02:00:29;1.30;99.90
20233;DHT22;37438;55.674;13.074;2023-01-23T02:03:34;1.30;99.90
20233;DHT22;37438;55.674;13.074;2023-01-23T02:06:39;1.30;99.90
20233;DHT22;37438;55.674;13.074;2023-01-23T02:09:45;1.30;99.90
20233;DHT22;37438;55.674;13.074;2023-01-23T02:20:34;1.40;99.90
20233;DHT22;37438;55.674;13.074;2023-01-23T02:27:04;1.40;99.90
20233;DHT22;37438;55.674;13.074;2023-01-23T02:30:09;1.30;99.90
20233;DHT22;37438;55.674;13.074;2023-01-23T02:36:30;1.30;99.90
20233;DHT22;37438;55.674;13.074;2023-01-23T02:39:36;1.40;99.90
20233;DHT22;37438;55.674;13.074;2023-01-23T02:42:45;1.40;99.90
20233;DHT22;37438;55.674;13.074;2023-01-23T02:45:53;1.30;99.90
20233;DHT22;37438;55.674;13.074;2023-01-23T02:48:57;1.40;99.90
20233;DHT22;37438;55.674;13.074;2023-01-23T02:52:02;1.30;99.90
20233;DHT22;37438;55.674;13.074;2023-01-23T02:55:07;1.40;99.90
20233;DHT22;37438;55.674;13.074;2023-01-23T02:58:11;1.30;99.90
20233;DHT22;37438;55.674;13.074;2023-01-23T03:01:35;1.30;99.90
20233;DHT22;37438;55.674;13.074;2023-01-23T03:04:40;1.30;99.90
20233;DHT22;37438;55.674;13.074;2023-01-23T03:07:45;1.30;99.90
20233;DHT22;37438;55.674;13.074;2023-01-23T03:10:49;1.30;99.90
20233;DHT22;37438;55.674;13.074;2023-01-23T03:13:53;1.30;99.90
20233;DHT22;37438;55.674;13.074;2023-01-23T03:16:58;1.20;99.90
20233;DHT22;37438;55.674;13.074;2023-01-23T03:20:07;1.20;99.90
20233;DHT22;37438;55.674;13.074;2023-01-23T03:23:12;1.20;99.90
20233;DHT22;37438;55.674;13.074;2023-01-23T03:26:17;1.30;99.90
20233;DHT22;37438;55.674;13.074;2023-01-23T03:29:24;1.30;99.90
20233;DHT22;37438;55.674;13.074;2023-01-23T03:32:50;1.30;99.90
20233;DHT22;37438;55.674;13.074;2023-01-23T03:35:55;1.20;99.90
20233;DHT22;37438;55.674;13.074;2023-01-23T03:39:00;1.20;99.90
20233;DHT22;37438;55.674;13.074;2023-01-23T03:42:23;1.20;99.90
20233;DHT22;37438;55.674;13.074;2023-01-23T03:45:30;1.20;99.90
20233;DHT22;37438;55.674;13.074;2023-01-23T03:48:34;1.30;99.90
20233;DHT22;37438;55.674;13.074;2023-01-23T03:51:40;1.30;99.90
20233;DHT22;37438;55.674;13.074;2023-01-23T03:54:44;1.30;99.90
20233;DHT22;37438;55.674;13.074;2023-01-23T03:57:51;1.30;99.90
20233;DHT22;37438;55.674;13.074;2023-01-23T04:01:07;1.30;99.90
20233;DHT22;37438;55.674;13.074;2023-01-23T04:04:14;1.20;99.90
20233;DHT22;37438;55.674;13.074;2023-01-23T04:07:20;1.30;99.90
20233;DHT22;37438;55.674;13.074;2023-01-23T04:10:26;1.30;99.90
20233;DHT22;37438;55.674;13.074;2023-01-23T04:13:36;1.40;99.90
20233;DHT22;37438;55.674;13.074;2023-01-23T04:16:41;1.40;99.90
20233;DHT22;37438;55.674;13.074;2023-01-23T04:19:45;1.50;99.90
20233;DHT22;37438;55.674;13.074;2023-01-23T04:22:50;1.40;99.90
20233;DHT22;37438;55.674;13.074;2023-01-23T04:25:55;1.50;99.90
20233;DHT22;37438;55.674;13.074;2023-01-23T04:29:01;1.40;99.90
20233;DHT22;37438;55.674;13.074;2023-01-23T04:32:05;1.50;99.90
20233;DHT22;37438;55.674;13.074;2023-01-23T04:35:17;1.40;99.90
20233;DHT22;37438;55.674;13.074;2023-01-23T04:38:23;1.40;99.90
20233;DHT22;37438;55.674;13.074;2023-01-23T04:41:29;1.40;99.90
20233;DHT22;37438;55.674;13.074;2023-01-23T04:44:43;1.40;99.90
20233;DHT22;37438;55.674;13.074;2023-01-23T04:48:03;1.30;99.90
20233;DHT22;37438;55.674;13.074;2023-01-23T04:51:10;1.40;99.90
20233;DHT22;37438;55.674;13.074;2023-01-23T04:54:15;1.40;99.90
20233;DHT22;37438;55.674;13.074;2023-01-23T04:57:20;1.40;99.90
20233;DHT22;37438;55.674;13.074;2023-01-23T05:00:29;1.40;99.90
20233;DHT22;37438;55.674;13.074;2023-01-23T05:03:36;1.40;99.90
20233;DHT22;37438;55.674;13.074;2023-01-23T05:06:40;1.40;99.90
20233;DHT22;37438;55.674;13.074;2023-01-23T05:09:45;1.40;99.90
20233;DHT22;37438;55.674;13.074;2023-01-23T05:12:51;1.40;99.90
20233;DHT22;37438;55.674;13.074;2023-01-23T05:15:57;1.50;99.90
20233;DHT22;37438;55.674;13.074;2023-01-23T05:19:01;1.40;99.90
20233;DHT22;37438;55.674;13.074;2023-01-23T05:22:08;1.40;99.90
20233;DHT22;37438;55.674;13.074;2023-01-23T05:25:13;1.40;99.90
20233;DHT22;37438;55.674;13.074;2023-01-23T05:28:17;1.40;99.90
20233;DHT22;37438;55.674;13.074;2023-01-23T05:31:27;1.40;99.90
20233;DHT22;37438;55.674;13.074;2023-01-23T05:34:57;1.40;99.90
20233;DHT22;37438;55.674;13.074;2023-01-23T05:38:05;1.50;99.90
20233;DHT22;37438;55.674;13.074;2023-01-23T05:41:10;1.50;99.90
20233;DHT22;37438;55.674;13.074;2023-01-23T05:44:34;1.40;99.90
20233;DHT22;37438;55.674;13.074;2023-01-23T05:47:43;1.50;99.90
20233;DHT22;37438;55.674;13.074;2023-01-23T05:50:48;1.50;99.90
20233;DHT22;37438;55.674;13.074;2023-01-23T05:53:53;1.50;99.90
20233;DHT22;37438;55.674;13.074;2023-01-23T05:56:58;1.50;99.90
20233;DHT22;37438;55.674;13.074;2023-01-23T06:00:31;1.50;99.90
20233;DHT22;37438;55.674;13.074;2023-01-23T06:04:08;1.50;99.90
20233;DHT22;37438;55.674;13.074;2023-01-23T06:07:26;1.50;99.90
20233;DHT22;37438;55.674;13.074;2023-01-23T06:10:36;1.50;99.90
20233;DHT22;37438;55.674;13.074;2023-01-23T06:13:41;1.40;99.90
20233;DHT22;37438;55.674;13.074;2023-01-23T06:16:46;1.40;99.90
20233;DHT22;37438;55.674;13.074;2023-01-23T06:19:50;1.40;99.90
20233;DHT22;37438;55.674;13.074;2023-01-23T06:22:55;1.40;99.90
20233;DHT22;37438;55.674;13.074;2023-01-23T06:26:01;1.40;99.90
20233;DHT22;37438;55.674;13.074;2023-01-23T06:29:06;1.40;99.90
20233;DHT22;37438;55.674;13.074;2023-01-23T06:32:11;1.40;99.90
20233;DHT22;37438;55.674;13.074;2023-01-23T06:35:16;1.30;99.90
20233;DHT22;37438;55.674;13.074;2023-01-23T06:38:21;1.30;99.90
20233;DHT22;37438;55.674;13.074;2023-01-23T06:41:27;1.30;99.90
20233;DHT22;37438;55.674;13.074;2023-01-23T06:44:36;1.30;99.90
20233;DHT22;37438;55.674;13.074;2023-01-23T06:47:41;1.30;99.90
20233;DHT22;37438;55.674;13.074;2023-01-23T06:50:46;1.30;99.90
20233;DHT22;37438;55.674;13.074;2023-01-23T06:53:50;1.30;99.90
20233;DHT22;37438;55.674;13.074;2023-01-23T06:56:55;1.40;99.90
20233;DHT22;37438;55.674;13.074;2023-01-23T07:00:00;1.30;99.90
20233;DHT22;37438;55.674;13.074;2023-01-23T07:03:07;1.30;99.90
20233;DHT22;37438;55.674;13.074;2023-01-23T07:06:13;1.40;99.90
20233;DHT22;37438;55.674;13.074;2023-01-23T07:09:18;1.40;99.90
20233;DHT22;37438;55.674;13.074;2023-01-23T07:12:34;1.40;99.90
20233;DHT22;37438;55.674;13.074;2023-01-23T07:15:39;1.30;99.90
20233;DHT22;37438;55.674;13.074;2023-01-23T07:18:44;1.30;99.90
20233;DHT22;37438;55.674;13.074;2023-01-23T07:21:49;1.30;99.90
20233;DHT22;37438;55.674;13.074;2023-01-23T07:24:54;1.30;99.90
20233;DHT22;37438;55.674;13.074;2023-01-23T07:27:58;1.30;99.90
20233;DHT22;37438;55.674;13.074;2023-01-23T07:31:03;1.30;99.90
20233;DHT22;37438;55.674;13.074;2023-01-23T07:34:08;1.30;99.90
20233;DHT22;37438;55.674;13.074;2023-01-23T07:37:13;1.30;99.90
20233;DHT22;37438;55.674;13.074;2023-01-23T07:40:17;1.30;99.90
20233;DHT22;37438;55.674;13.074;2023-01-23T07:43:22;1.30;99.90
20233;DHT22;37438;55.674;13.074;2023-01-23T07:46:26;1.40;99.90
20233;DHT22;37438;55.674;13.074;2023-01-23T07:49:31;1.40;99.90
20233;DHT22;37438;55.674;13.074;2023-01-23T07:52:35;1.40;99.90
20233;DHT22;37438;55.674;13.074;2023-01-23T07:55:40;1.40;99.90
20233;DHT22;37438;55.674;13.074;2023-01-23T07:58:48;1.40;99.90
20233;DHT22;37438;55.674;13.074;2023-01-23T08:01:52;1.40;99.90
20233;DHT22;37438;55.674;13.074;2023-01-23T08:04:57;1.40;99.90
20233;DHT22;37438;55.674;13.074;2023-01-23T08:08:01;1.40;99.90
20233;DHT22;37438;55.674;13.074;2023-01-23T08:11:16;1.50;99.90
20233;DHT22;37438;55.674;13.074;2023-01-23T08:14:21;1.50;99.90
20233;DHT22;37438;55.674;13.074;2023-01-23T08:17:25;1.50;99.90
20233;DHT22;37438;55.674;13.074;2023-01-23T08:20:29;1.60;99.90
20233;DHT22;37438;55.674;13.074;2023-01-23T08:23:35;1.60;99.90
20233;DHT22;37438;55.674;13.074;2023-01-23T08:26:40;1.60;99.90
20233;DHT22;37438;55.674;13.074;2023-01-23T08:29:45;1.60;99.90
20233;DHT22;37438;55.674;13.074;2023-01-23T08:32:49;1.70;99.90
20233;DHT22;37438;55.674;13.074;2023-01-23T08:35:56;1.70;99.90
20233;DHT22;37438;55.674;13.074;2023-01-23T08:39:00;1.80;99.90
20233;DHT22;37438;55.674;13.074;2023-01-23T08:42:05;1.80;99.90
20233;DHT22;37438;55.674;13.074;2023-01-23T08:45:09;1.80;99.90
20233;DHT22;37438;55.674;13.074;2023-01-23T08:48:15;1.80;99.90
20233;DHT22;37438;55.674;13.074;2023-01-23T08:51:19;1.90;99.90
20233;DHT22;37438;55.674;13.074;2023-01-23T08:54:23;2.00;99.90
20233;DHT22;37438;55.674;13.074;2023-01-23T08:57:28;2.00;99.90
20233;DHT22;37438;55.674;13.074;2023-01-23T09:00:33;2.00;99.90
20233;DHT22;37438;55.674;13.074;2023-01-23T09:03:37;2.00;99.90
20233;DHT22;37438;55.674;13.074;2023-01-23T09:06:42;2.00;99.90
20233;DHT22;37438;55.674;13.074;2023-01-23T09:09:46;2.00;99.90
20233;DHT22;37438;55.674;13.074;2023-01-23T09:12:51;2.00;99.90
20233;DHT22;37438;55.674;13.074;2023-01-23T09:15:56;2.00;99.90
20233;DHT22;37438;55.674;13.074;2023-01-23T09:19:00;2.10;99.90
20233;DHT22;37438;55.674;13.074;2023-01-23T09:22:05;2.20;99.90
20233;DHT22;37438;55.674;13.074;2023-01-23T09:25:10;2.20;99.90
20233;DHT22;37438;55.674;13.074;2023-01-23T09:28:14;2.30;99.90
20233;DHT22;37438;55.674;13.074;2023-01-23T09:31:18;2.30;99.90
20233;DHT22;37438;55.674;13.074;2023-01-23T09:34:23;2.40;99.90
20233;DHT22;37438;55.674;13.074;2023-01-23T09:37:31;2.30;99.90
20233;DHT22;37438;55.674;13.074;2023-01-23T09:41:23;2.40;99.90
20233;DHT22;37438;55.674;13.074;2023-01-23T09:44:40;2.40;99.90
20233;DHT22;37438;55.674;13.074;2023-01-23T09:47:55;2.60;99.90
20233;DHT22;37438;55.674;13.074;2023-01-23T09:54:47;2.60;99.90
20233;DHT22;37438;55.674;13.074;2023-01-23T09:57:55;2.60;99.90
20233;DHT22;37438;55.674;13.074;2023-01-23T10:00:59;2.70;99.90
20233;DHT22;37438;55.674;13.074;2023-01-23T10:04:04;2.70;99.90
20233;DHT22;37438;55.674;13.074;2023-01-23T10:07:36;2.80;99.90
20233;DHT22;37438;55.674;13.074;2023-01-23T10:14:01;3.10;99.90
20233;DHT22;37438;55.674;13.074;2023-01-23T10:17:21;3.10;99.90
20233;DHT22;37438;55.674;13.074;2023-01-23T10:27:36;3.50;99.90
20233;DHT22;37438;55.674;13.074;2023-01-23T10:30:46;3.60;99.90
20233;DHT22;37438;55.674;13.074;2023-01-23T10:34:26;3.60;99.90
20233;DHT22;37438;55.674;13.074;2023-01-23T10:37:39;3.50;99.90
20233;DHT22;37438;55.674;13.074;2023-01-23T10:40:49;3.50;99.90
20233;DHT22;37438;55.674;13.074;2023-01-23T10:44:17;3.40;99.90
20233;DHT22;37438;55.674;13.074;2023-01-23T10:47:41;3.40;99.90
20233;DHT22;37438;55.674;13.074;2023-01-23T10:50:47;3.30;99.90
20233;DHT22;37438;55.674;13.074;2023-01-23T10:57:34;3.40;99.90
20233;DHT22;37438;55.674;13.074;2023-01-23T11:00:44;3.50;99.90
20233;DHT22;37438;55.674;13.074;2023-01-23T11:03:49;3.70;99.90
20233;DHT22;37438;55.674;13.074;2023-01-23T11:07:02;3.70;99.90
20233;DHT22;37438;55.674;13.074;2023-01-23T11:13:27;3.70;99.90
20233;DHT22;37438;55.674;13.074;2023-01-23T11:16:32;3.70;99.90
20233;DHT22;37438;55.674;13.074;2023-01-23T11:19:37;3.80;99.90
20233;DHT22;37438;55.674;13.074;2023-01-23T11:22:42;4.00;99.90
20233;DHT22;37438;55.674;13.074;2023-01-23T11:25:48;4.10;99.90
20233;DHT22;37438;55.674;13.074;2023-01-23T11:28:53;4.20;99.90
20233;DHT22;37438;55.674;13.074;2023-01-23T11:32:04;4.10;99.90
20233;DHT22;37438;55.674;13.074;2023-01-23T11:35:19;4.30;99.90
20233;DHT22;37438;55.674;13.074;2023-01-23T11:38:27;4.30;99.90
20233;DHT22;37438;55.674;13.074;2023-01-23T11:41:35;4.30;99.90
20233;DHT22;37438;55.674;13.074;2023-01-23T11:44:40;4.30;99.90
20233;DHT22;37438;55.674;13.074;2023-01-23T11:48:09;4.20;99.90
20233;DHT22;37438;55.674;13.074;2023-01-23T11:51:30;4.30;99.90
20233;DHT22;37438;55.674;13.074;2023-01-23T12:11:59;4.30;99.90
20233;DHT22;37438;55.674;13.074;2023-01-23T12:29:05;4.00;99.90
20233;DHT22;37438;55.674;13.074;2023-01-23T12:32:26;4.00;99.90
20233;DHT22;37438;55.674;13.074;2023-01-23T12:39:14;3.90;99.90
20233;DHT22;37438;55.674;13.074;2023-01-23T12:45:38;3.80;99.90
20233;DHT22;37438;55.674;13.074;2023-01-23T12:52:28;3.70;99.90
20233;DHT22;37438;55.674;13.074;2023-01-23T13:15:33;3.30;99.90
20233;DHT22;37438;55.674;13.074;2023-01-23T13:18:56;3.40;99.90
20233;DHT22;37438;55.674;13.074;2023-01-23T13:25:32;3.30;99.90
20233;DHT22;37438;55.674;13.074;2023-01-23T13:28:44;3.30;99.90
20233;DHT22;37438;55.674;13.074;2023-01-23T13:32:20;3.30;99.90
20233;DHT22;37438;55.674;13.074;2023-01-23T13:38:42;3.30;99.90
20233;DHT22;37438;55.674;13.074;2023-01-23T13:41:49;3.30;99.90
20233;DHT22;37438;55.674;13.074;2023-01-23T13:45:33;3.30;99.90
20233;DHT22;37438;55.674;13.074;2023-01-23T13:48:53;3.30;99.90
20233;DHT22;37438;55.674;13.074;2023-01-23T13:52:47;3.40;99.90
20233;DHT22;37438;55.674;13.074;2023-01-23T13:56:27;3.40;99.90
20233;DHT22;37438;55.674;13.074;2023-01-23T13:59:57;3.40;99.90
20233;DHT22;37438;55.674;13.074;2023-01-23T14:03:35;3.30;99.90
20233;DHT22;37438;55.674;13.074;2023-01-23T14:07:22;3.30;99.90
20233;DHT22;37438;55.674;13.074;2023-01-23T14:11:00;3.40;99.90
20233;DHT22;37438;55.674;13.074;2023-01-23T14:14:20;3.50;99.90
20233;DHT22;37438;55.674;13.074;2023-01-23T14:17:42;3.40;99.90
20233;DHT22;37438;55.674;13.074;2023-01-23T14:21:17;3.30;99.90
20233;DHT22;37438;55.674;13.074;2023-01-23T14:24:28;3.20;99.90
20233;DHT22;37438;55.674;13.074;2023-01-23T14:27:42;3.10;99.90
20233;DHT22;37438;55.674;13.074;2023-01-23T14:31:02;2.90;99.90
20233;DHT22;37438;55.674;13.074;2023-01-23T14:34:15;2.90;99.90
20233;DHT22;37438;55.674;13.074;2023-01-23T14:37:22;2.90;99.90
20233;DHT22;37438;55.674;13.074;2023-01-23T14:40:27;2.90;99.90
20233;DHT22;37438;55.674;13.074;2023-01-23T14:43:44;2.80;99.90
20233;DHT22;37438;55.674;13.074;2023-01-23T14:46:51;2.90;99.90
20233;DHT22;37438;55.674;13.074;2023-01-23T14:49:57;2.80;99.90
20233;DHT22;37438;55.674;13.074;2023-01-23T14:53:04;2.80;99.90
20233;DHT22;37438;55.674;13.074;2023-01-23T14:56:10;2.70;99.90
20233;DHT22;37438;55.674;13.074;2023-01-23T14:59:22;2.70;99.90
20233;DHT22;37438;55.674;13.074;2023-01-23T15:05:34;2.70;99.90
20233;DHT22;37438;55.674;13.074;2023-01-23T15:08:42;2.70;99.90
20233;DHT22;37438;55.674;13.074;2023-01-23T15:11:46;2.70;99.90
20233;DHT22;37438;55.674;13.074;2023-01-23T15:14:53;2.60;99.90
20233;DHT22;37438;55.674;13.074;2023-01-23T15:17:59;2.60;99.90
20233;DHT22;37438;55.674;13.074;2023-01-23T15:21:06;2.50;99.90
20233;DHT22;37438;55.674;13.074;2023-01-23T15:30:44;2.40;99.90
20233;DHT22;37438;55.674;13.074;2023-01-23T15:33:49;2.40;99.90
20233;DHT22;37438;55.674;13.074;2023-01-23T15:36:55;2.50;99.90
20233;DHT22;37438;55.674;13.074;2023-01-23T15:40:01;2.50;99.90
20233;DHT22;37438;55.674;13.074;2023-01-23T15:43:13;2.60;99.90
20233;DHT22;37438;55.674;13.074;2023-01-23T15:46:18;2.50;99.90
20233;DHT22;37438;55.674;13.074;2023-01-23T15:49:23;2.50;99.90
20233;DHT22;37438;55.674;13.074;2023-01-23T15:52:43;2.50;99.90
20233;DHT22;37438;55.674;13.074;2023-01-23T15:55:48;2.50;99.90
20233;DHT22;37438;55.674;13.074;2023-01-23T15:58:53;2.50;99.90
20233;DHT22;37438;55.674;13.074;2023-01-23T16:01:57;2.40;99.90
20233;DHT22;37438;55.674;13.074;2023-01-23T16:05:02;2.40;99.90
20233;DHT22;37438;55.674;13.074;2023-01-23T16:08:20;2.40;99.90
20233;DHT22;37438;55.674;13.074;2023-01-23T16:11:29;2.40;99.90
20233;DHT22;37438;55.674;13.074;2023-01-23T16:14:35;2.30;99.90
20233;DHT22;37438;55.674;13.074;2023-01-23T16:17:39;2.40;99.90
20233;DHT22;37438;55.674;13.074;2023-01-23T16:20:45;2.50;99.90
20233;DHT22;37438;55.674;13.074;2023-01-23T16:23:49;2.50;99.90
20233;DHT22;37438;55.674;13.074;2023-01-23T16:26:56;2.50;99.90
20233;DHT22;37438;55.674;13.074;2023-01-23T16:30:05;2.50;99.90
20233;DHT22;37438;55.674;13.074;2023-01-23T16:33:10;2.50;99.90
20233;DHT22;37438;55.674;13.074;2023-01-23T16:36:16;2.60;99.90
20233;DHT22;37438;55.674;13.074;2023-01-23T16:39:24;2.60;99.90
20233;DHT22;37438;55.674;13.074;2023-01-23T16:42:30;2.70;99.90
20233;DHT22;37438;55.674;13.074;2023-01-23T16:45:34;2.70;99.90
20233;DHT22;37438;55.674;13.074;2023-01-23T16:48:39;2.60;99.90
20233;DHT22;37438;55.674;13.074;2023-01-23T16:51:57;2.70;99.90
20233;DHT22;37438;55.674;13.074;2023-01-23T16:55:04;2.60;99.90
20233;DHT22;37438;55.674;13.074;2023-01-23T16:58:26;2.60;99.90
20233;DHT22;37438;55.674;13.074;2023-01-23T17:01:35;2.60;99.90
20233;DHT22;37438;55.674;13.074;2023-01-23T17:04:40;2.50;99.90
20233;DHT22;37438;55.674;13.074;2023-01-23T17:07:45;2.40;99.90
20233;DHT22;37438;55.674;13.074;2023-01-23T17:10:53;2.30;99.90
20233;DHT22;37438;55.674;13.074;2023-01-23T17:14:01;2.40;99.90
20233;DHT22;37438;55.674;13.074;2023-01-23T17:17:10;2.40;99.90
20233;DHT22;37438;55.674;13.074;2023-01-23T17:20:17;2.40;99.90
20233;DHT22;37438;55.674;13.074;2023-01-23T17:23:22;2.50;99.90
20233;DHT22;37438;55.674;13.074;2023-01-23T17:26:27;2.50;99.90
20233;DHT22;37438;55.674;13.074;2023-01-23T17:29:31;2.50;99.90
20233;DHT22;37438;55.674;13.074;2023-01-23T17:32:36;2.40;99.90
20233;DHT22;37438;55.674;13.074;2023-01-23T17:35:42;2.50;99.90
20233;DHT22;37438;55.674;13.074;2023-01-23T17:38:54;2.40;99.90
20233;DHT22;37438;55.674;13.074;2023-01-23T17:41:58;2.40;99.90
20233;DHT22;37438;55.674;13.074;2023-01-23T17:45:03;2.40;99.90
20233;DHT22;37438;55.674;13.074;2023-01-23T17:48:14;2.40;99.90
20233;DHT22;37438;55.674;13.074;2023-01-23T17:51:20;2.40;99.90
20233;DHT22;37438;55.674;13.074;2023-01-23T17:54:25;2.40;99.90
20233;DHT22;37438;55.674;13.074;2023-01-23T17:57:29;2.30;99.90
20233;DHT22;37438;55.674;13.074;2023-01-23T18:00:34;2.30;99.90
20233;DHT22;37438;55.674;13.074;2023-01-23T18:03:38;2.30;99.90
20233;DHT22;37438;55.674;13.074;2023-01-23T18:06:44;2.30;99.90
20233;DHT22;37438;55.674;13.074;2023-01-23T18:09:49;2.20;99.90
20233;DHT22;37438;55.674;13.074;2023-01-23T18:13:21;2.20;99.90
20233;DHT22;37438;55.674;13.074;2023-01-23T18:16:43;2.30;99.90
20233;DHT22;37438;55.674;13.074;2023-01-23T18:19:48;2.30;99.90
20233;DHT22;37438;55.674;13.074;2023-01-23T18:22:54;2.30;99.90
20233;DHT22;37438;55.674;13.074;2023-01-23T18:29:42;2.30;99.90
20233;DHT22;37438;55.674;13.074;2023-01-23T18:39:53;2.20;99.90
20233;DHT22;37438;55.674;13.074;2023-01-23T18:43:38;2.30;99.90
20233;DHT22;37438;55.674;13.074;2023-01-23T18:46:43;2.30;99.90
20233;DHT22;37438;55.674;13.074;2023-01-23T18:49:48;2.30;99.90
20233;DHT22;37438;55.674;13.074;2023-01-23T18:53:15;2.30;99.90
20233;DHT22;37438;55.674;13.074;2023-01-23T18:56:29;2.20;99.90
20233;DHT22;37438;55.674;13.074;2023-01-23T18:59:48;2.20;99.90
20233;DHT22;37438;55.674;13.074;2023-01-23T19:02:59;2.20;99.90
20233;DHT22;37438;55.674;13.074;2023-01-23T19:06:05;2.30;99.90
20233;DHT22;37438;55.674;13.074;2023-01-23T19:09:18;2.30;99.90
20233;DHT22;37438;55.674;13.074;2023-01-23T19:12:35;2.30;99.90
20233;DHT22;37438;55.674;13.074;2023-01-23T19:19:08;2.20;99.90
20233;DHT22;37438;55.674;13.074;2023-01-23T19:22:19;2.30;99.90
20233;DHT22;37438;55.674;13.074;2023-01-23T19:25:24;2.30;99.90
20233;DHT22;37438;55.674;13.074;2023-01-23T19:28:28;2.30;99.90
20233;DHT22;37438;55.674;13.074;2023-01-23T19:31:34;2.20;99.90
20233;DHT22;37438;55.674;13.074;2023-01-23T19:34:39;2.00;99.90
20233;DHT22;37438;55.674;13.074;2023-01-23T19:37:45;2.10;99.90
20233;DHT22;37438;55.674;13.074;2023-01-23T19:40:50;2.00;99.90
20233;DHT22;37438;55.674;13.074;2023-01-23T19:43:56;2.00;99.90
20233;DHT22;37438;55.674;13.074;2023-01-23T19:47:00;2.10;99.90
20233;DHT22;37438;55.674;13.074;2023-01-23T19:50:08;2.10;99.90
20233;DHT22;37438;55.674;13.074;2023-01-23T19:53:12;2.10;99.90
20233;DHT22;37438;55.674;13.074;2023-01-23T19:56:18;2.20;99.90
20233;DHT22;37438;55.674;13.074;2023-01-23T19:59:23;2.10;99.90
20233;DHT22;37438;55.674;13.074;2023-01-23T20:02:29;2.10;99.90
20233;DHT22;37438;55.674;13.074;2023-01-23T20:05:33;2.10;99.90
20233;DHT22;37438;55.674;13.074;2023-01-23T20:08:38;2.10;99.90
20233;DHT22;37438;55.674;13.074;2023-01-23T20:11:43;2.20;99.90
20233;DHT22;37438;55.674;13.074;2023-01-23T20:14:48;2.20;99.90
20233;DHT22;37438;55.674;13.074;2023-01-23T20:17:53;2.20;99.90
20233;DHT22;37438;55.674;13.074;2023-01-23T20:20:58;2.20;99.90
20233;DHT22;37438;55.674;13.074;2023-01-23T20:24:03;2.10;99.90
20233;DHT22;37438;55.674;13.074;2023-01-23T20:27:08;1.90;99.90
20233;DHT22;37438;55.674;13.074;2023-01-23T20:30:17;2.00;99.90
20233;DHT22;37438;55.674;13.074;2023-01-23T20:33:24;2.10;99.90
20233;DHT22;37438;55.674;13.074;2023-01-23T20:36:29;2.00;99.90
20233;DHT22;37438;55.674;13.074;2023-01-23T20:39:33;2.00;99.90
20233;DHT22;37438;55.674;13.074;2023-01-23T20:42:38;2.00;99.90
20233;DHT22;37438;55.674;13.074;2023-01-23T20:45:50;2.10;99.90
20233;DHT22;37438;55.674;13.074;2023-01-23T20:48:55;2.00;99.90
20233;DHT22;37438;55.674;13.074;2023-01-23T20:51:59;2.10;99.90
20233;DHT22;37438;55.674;13.074;2023-01-23T20:55:30;2.10;99.90
20233;DHT22;37438;55.674;13.074;2023-01-23T20:58:37;2.20;99.90
20233;DHT22;37438;55.674;13.074;2023-01-23T21:02:00;2.20;99.90
20233;DHT22;37438;55.674;13.074;2023-01-23T21:05:22;2.10;99.90
20233;DHT22;37438;55.674;13.074;2023-01-23T21:08:27;2.10;99.90
20233;DHT22;37438;55.674;13.074;2023-01-23T21:11:31;2.00;99.90
20233;DHT22;37438;55.674;13.074;2023-01-23T21:14:36;2.00;99.90
20233;DHT22;37438;55.674;13.074;2023-01-23T21:17:41;2.00;99.90
20233;DHT22;37438;55.674;13.074;2023-01-23T21:20:45;2.00;99.90
20233;DHT22;37438;55.674;13.074;2023-01-23T21:23:50;2.10;99.90
20233;DHT22;37438;55.674;13.074;2023-01-23T21:26:55;2.10;99.90
20233;DHT22;37438;55.674;13.074;2023-01-23T21:29:59;2.10;99.90
20233;DHT22;37438;55.674;13.074;2023-01-23T21:33:05;2.10;99.90
20233;DHT22;37438;55.674;13.074;2023-01-23T21:36:10;2.10;99.90
20233;DHT22;37438;55.674;13.074;2023-01-23T21:39:16;2.10;99.90
20233;DHT22;37438;55.674;13.074;2023-01-23T21:42:20;2.20;99.90
20233;DHT22;37438;55.674;13.074;2023-01-23T21:45:24;2.20;99.90
20233;DHT22;37438;55.674;13.074;2023-01-23T21:48:30;2.20;99.90
20233;DHT22;37438;55.674;13.074;2023-01-23T21:51:35;2.10;99.90
20233;DHT22;37438;55.674;13.074;2023-01-23T21:54:40;2.20;99.90
20233;DHT22;37438;55.674;13.074;2023-01-23T21:57:46;2.20;99.90
20233;DHT22;37438;55.674;13.074;2023-01-23T22:01:02;2.10;99.90
20233;DHT22;37438;55.674;13.074;2023-01-23T22:04:25;2.20;99.90